Time;durP1;ratioP1;P1;durP2;ratioP2;P2;SDS_P1;SDS_P2;PMS_P1;PMS_P2;Temp;Humidity;BMP_temperature;BMP_pressure;BME280_temperature;BME280_humidity;BME280_pressure;Samples;Min_cycle;Max_cycle;Signal;HPM_P1;HPM_P2
2022/04/09 00:00:43;;;;;;;0.40;0.40;;;1.50;99.90;;;;;;4976470;28;20029;-81
2022/04/09 00:03:09;;;;;;;0.40;0.40;;;1.50;99.90;;;;;;4975986;28;20040;-80
2022/04/09 00:05:35;;;;;;;0.30;0.30;;;1.50;99.90;;;;;;4957331;28;20081;-82
2022/04/09 00:08:00;;;;;;;0.38;0.38;;;1.60;99.90;;;;;;4973343;28;20038;-82
2022/04/09 00:10:26;;;;;;;0.40;0.40;;;1.60;99.90;;;;;;4976224;28;20030;-83
2022/04/09 00:12:51;;;;;;;0.50;0.50;;;1.60;99.90;;;;;;4980307;28;20035;-81
2022/04/09 00:15:17;;;;;;;0.80;0.80;;;1.70;99.90;;;;;;4964223;28;20027;-81
2022/04/09 00:17:44;;;;;;;0.80;0.80;;;1.70;99.90;;;;;;4979030;28;20149;-80
2022/04/09 00:20:12;;;;;;;0.60;0.60;;;1.70;99.90;;;;;;4961367;28;20392;-80
2022/04/09 00:22:38;;;;;;;0.80;0.80;;;1.80;99.90;;;;;;4958287;28;21105;-80
2022/04/09 00:25:06;;;;;;;0.70;0.70;;;1.80;99.90;;;;;;4969706;28;20031;-80
2022/04/09 00:27:31;;;;;;;0.75;0.75;;;1.80;99.90;;;;;;4974982;28;20054;-80
2022/04/09 00:29:57;;;;;;;0.90;0.90;;;1.90;99.90;;;;;;4969451;28;20023;-80
2022/04/09 00:32:23;;;;;;;0.80;0.80;;;1.90;99.90;;;;;;4961356;28;20027;-81
2022/04/09 00:34:48;;;;;;;2.05;0.90;;;2.00;99.90;;;;;;4975671;28;20401;-81
2022/04/09 00:37:14;;;;;;;0.73;0.70;;;2.00;99.90;;;;;;4983476;28;20036;-80
2022/04/09 00:39:40;;;;;;;0.80;0.80;;;2.00;99.90;;;;;;4961630;28;20127;-81
2022/04/09 00:42:18;;;;;;;1.20;1.02;;;2.00;99.90;;;;;;4979951;28;20569;-81
2022/04/09 00:44:45;;;;;;;0.60;0.60;;;2.00;99.90;;;;;;4990590;28;20019;-80
2022/04/09 00:47:11;;;;;;;1.92;0.63;;;1.90;99.90;;;;;;4985850;28;20488;-80
2022/04/09 00:49:37;;;;;;;1.00;0.90;;;1.90;99.90;;;;;;4983134;28;20046;-81
2022/04/09 00:52:05;;;;;;;0.80;0.80;;;1.90;99.90;;;;;;4960423;28;20039;-80
2022/04/09 00:54:37;;;;;;;0.70;0.70;;;1.90;99.90;;;;;;4971954;28;20061;-80
2022/04/09 00:57:05;;;;;;;0.60;0.60;;;1.90;99.90;;;;;;4971163;28;20031;-80
2022/04/09 00:59:36;;;;;;;0.60;0.60;;;1.90;99.90;;;;;;4975767;28;20440;-80
2022/04/09 01:02:03;;;;;;;0.50;0.50;;;1.90;99.90;;;;;;4962066;28;20527;-80
2022/04/09 01:04:30;;;;;;;0.60;0.50;;;1.90;99.90;;;;;;4986171;28;20046;-80
2022/04/09 01:06:56;;;;;;;0.50;0.40;;;1.90;99.90;;;;;;4980909;28;20072;-80
2022/04/09 01:09:22;;;;;;;0.50;0.50;;;1.90;99.90;;;;;;4961980;28;20062;-81
2022/04/09 01:11:47;;;;;;;0.50;0.50;;;1.90;99.90;;;;;;4963373;28;20054;-81
2022/04/09 01:14:17;;;;;;;0.70;0.70;;;1.90;99.90;;;;;;4965290;28;20031;-82
2022/04/09 01:16:43;;;;;;;1.00;0.52;;;2.00;99.90;;;;;;4982763;28;20021;-82
2022/04/09 01:19:08;;;;;;;0.60;0.60;;;2.00;99.90;;;;;;4982439;28;20039;-82
2022/04/09 01:21:35;;;;;;;1.00;1.00;;;1.90;99.90;;;;;;4988952;28;20049;-82
2022/04/09 01:24:04;;;;;;;0.65;0.65;;;2.00;99.90;;;;;;4965025;28;20055;-82
2022/04/09 01:26:30;;;;;;;0.95;0.80;;;2.00;99.90;;;;;;4963039;28;20045;-77
2022/04/09 01:28:55;;;;;;;1.38;1.27;;;2.00;99.90;;;;;;4979814;28;20030;-77
2022/04/09 01:31:21;;;;;;;0.88;0.88;;;2.00;99.90;;;;;;4979347;28;20437;-77
2022/04/09 01:33:46;;;;;;;2.13;1.00;;;2.00;99.90;;;;;;4986288;28;20491;-77
2022/04/09 01:36:14;;;;;;;0.90;0.80;;;2.00;99.90;;;;;;4984933;28;20027;-78
2022/04/09 01:38:40;;;;;;;1.20;1.00;;;2.00;99.90;;;;;;4980765;28;20027;-78
2022/04/09 01:41:06;;;;;;;1.50;1.40;;;2.00;99.90;;;;;;4979624;28;20030;-78
2022/04/09 01:43:31;;;;;;;1.33;1.23;;;2.10;99.90;;;;;;4956747;28;20441;-78
2022/04/09 01:45:57;;;;;;;1.38;1.23;;;2.10;99.90;;;;;;4976796;28;20035;-78
2022/04/09 01:48:22;;;;;;;1.80;1.67;;;2.10;99.90;;;;;;4975271;28;20058;-79
2022/04/09 01:50:48;;;;;;;2.30;1.40;;;2.20;99.90;;;;;;4952569;28;20022;-77
2022/04/09 01:53:14;;;;;;;2.13;1.83;;;2.20;99.90;;;;;;4964992;28;20039;-78
2022/04/09 01:55:40;;;;;;;2.80;2.15;;;2.20;99.90;;;;;;4976963;28;20089;-77
2022/04/09 01:58:06;;;;;;;2.05;1.95;;;2.20;99.90;;;;;;4965245;28;20076;-76
2022/04/09 02:00:31;;;;;;;2.42;2.22;;;2.20;99.90;;;;;;4958557;28;20026;-77
2022/04/09 02:02:57;;;;;;;2.35;2.15;;;2.20;99.90;;;;;;4976006;28;20031;-78
2022/04/09 02:05:24;;;;;;;2.33;2.10;;;2.20;99.90;;;;;;4976347;28;20026;-78
2022/04/09 02:07:50;;;;;;;6.07;2.40;;;2.20;99.90;;;;;;4979561;28;20476;-78
2022/04/09 02:10:17;;;;;;;2.80;2.60;;;2.20;99.90;;;;;;4979104;28;20097;-77
2022/04/09 02:12:43;;;;;;;2.35;2.15;;;2.20;99.90;;;;;;4977172;28;20027;-77
2022/04/09 02:15:14;;;;;;;2.75;2.45;;;2.30;99.90;;;;;;4976122;28;20042;-78
2022/04/09 02:17:41;;;;;;;3.05;2.75;;;2.30;99.90;;;;;;4964982;28;20543;-77
2022/04/09 02:20:09;;;;;;;5.30;2.72;;;2.30;99.90;;;;;;4982637;28;20035;-75
2022/04/09 02:22:39;;;;;;;3.50;2.83;;;2.40;99.90;;;;;;5007719;28;20019;-76
2022/04/09 02:25:07;;;;;;;3.50;3.08;;;2.40;99.90;;;;;;5002030;28;20091;-77
2022/04/09 02:27:33;;;;;;;4.35;3.70;;;2.50;99.90;;;;;;4992334;28;20022;-77
2022/04/09 02:29:59;;;;;;;2.75;2.50;;;2.50;99.90;;;;;;4975641;28;20685;-77
2022/04/09 02:32:25;;;;;;;2.85;2.65;;;2.60;99.90;;;;;;4979546;28;20082;-77
2022/04/09 02:34:53;;;;;;;4.32;3.40;;;2.60;99.90;;;;;;4979141;28;20042;-78
2022/04/09 02:37:20;;;;;;;5.25;2.55;;;2.50;99.90;;;;;;4958434;28;20441;-77
2022/04/09 02:39:45;;;;;;;3.05;2.75;;;2.50;99.90;;;;;;4964564;28;20051;-79
2022/04/09 02:42:12;;;;;;;3.30;3.00;;;2.60;99.90;;;;;;4958021;28;20520;-78
2022/04/09 02:44:38;;;;;;;3.97;3.00;;;2.60;99.90;;;;;;4976990;28;20019;-78
2022/04/09 02:47:04;;;;;;;3.47;2.78;;;2.60;99.90;;;;;;4977420;28;20029;-77
2022/04/09 02:49:29;;;;;;;2.63;2.42;;;2.50;99.90;;;;;;4978646;28;20685;-78
2022/04/09 02:51:55;;;;;;;4.47;2.63;;;2.50;99.90;;;;;;4961770;28;20077;-78
2022/04/09 02:54:20;;;;;;;2.70;2.50;;;2.50;99.90;;;;;;4970606;28;20101;-78
2022/04/09 02:56:48;;;;;;;2.70;2.50;;;2.60;99.90;;;;;;4965080;28;20090;-78
2022/04/09 02:59:14;;;;;;;3.88;2.55;;;2.50;99.90;;;;;;4979386;28;20096;-79
2022/04/09 03:01:42;;;;;;;3.47;3.03;;;2.60;99.90;;;;;;4974190;28;20038;-78
2022/04/09 03:04:08;;;;;;;2.70;2.38;;;2.50;99.90;;;;;;4959831;28;20022;-78
2022/04/09 03:06:33;;;;;;;3.10;2.88;;;2.50;99.90;;;;;;4971936;28;20023;-78
2022/04/09 03:08:59;;;;;;;2.95;2.75;;;2.60;99.90;;;;;;4971371;28;20515;-78
2022/04/09 03:11:25;;;;;;;3.17;2.90;;;2.60;99.90;;;;;;4974746;28;20023;-77
2022/04/09 03:13:50;;;;;;;3.33;3.03;;;2.60;99.90;;;;;;4978545;28;20401;-78
2022/04/09 03:16:16;;;;;;;5.40;3.38;;;2.70;99.90;;;;;;4960104;28;20507;-77
2022/04/09 03:18:42;;;;;;;11.25;4.65;;;2.70;99.90;;;;;;4977153;28;20101;-79
2022/04/09 03:21:07;;;;;;;4.20;3.80;;;2.70;99.90;;;;;;4968608;28;20030;-78
2022/04/09 03:23:33;;;;;;;3.40;3.10;;;2.70;99.90;;;;;;4959381;28;20038;-78
2022/04/09 03:25:58;;;;;;;3.55;2.92;;;2.70;99.90;;;;;;4983644;28;20050;-77
2022/04/09 03:28:24;;;;;;;2.95;2.75;;;2.80;99.90;;;;;;4974661;28;20038;-77
2022/04/09 03:30:50;;;;;;;3.58;3.28;;;2.80;99.90;;;;;;4977544;28;20090;-75
2022/04/09 03:33:16;;;;;;;3.65;3.35;;;2.80;99.90;;;;;;4986311;28;20066;-77
2022/04/09 03:35:42;;;;;;;3.60;3.30;;;2.90;99.90;;;;;;4991405;28;20018;-78
2022/04/09 03:38:11;;;;;;;3.58;3.20;;;2.90;99.90;;;;;;4995547;28;20054;-77
2022/04/09 03:40:38;;;;;;;4.57;3.40;;;2.90;99.90;;;;;;4988144;28;20044;-76
2022/04/09 03:43:03;;;;;;;4.22;3.83;;;2.90;99.90;;;;;;4997936;28;20042;-77
2022/04/09 03:45:29;;;;;;;3.83;3.53;;;2.90;99.90;;;;;;4990476;28;20035;-77
2022/04/09 03:47:54;;;;;;;4.28;3.88;;;3.00;99.90;;;;;;4955421;28;20030;-77
2022/04/09 03:50:20;;;;;;;4.78;4.38;;;3.00;99.90;;;;;;4957069;28;20018;-78
2022/04/09 03:52:46;;;;;;;4.20;3.90;;;3.00;99.90;;;;;;4971625;28;20019;-77
2022/04/09 03:55:13;;;;;;;5.30;4.55;;;3.00;99.90;;;;;;4985681;28;20042;-77
2022/04/09 03:57:38;;;;;;;5.97;5.40;;;3.00;99.90;;;;;;4977888;28;20014;-77
2022/04/09 04:00:05;;;;;;;5.35;4.53;;;3.00;99.90;;;;;;4978779;28;20042;-77
2022/04/09 04:02:30;;;;;;;5.40;4.90;;;3.00;99.90;;;;;;4980885;28;20015;-77
2022/04/09 04:05:01;;;;;;;7.53;6.05;;;3.00;99.90;;;;;;4996292;28;20062;-77
2022/04/09 04:07:27;;;;;;;;;;;3.00;99.90;;;;;;4978867;28;20025;-76
2022/04/09 04:09:52;;;;;;;10.23;9.20;;;3.00;99.90;;;;;;4975296;28;19945;-77
2022/04/09 04:12:18;;;;;;;9.15;7.80;;;3.00;99.90;;;;;;4957462;28;20081;-77
2022/04/09 04:14:44;;;;;;;10.20;8.23;;;3.00;99.90;;;;;;4966808;28;20025;-78
2022/04/09 04:17:10;;;;;;;11.18;9.30;;;3.00;99.90;;;;;;4977804;28;20026;-77
2022/04/09 04:19:36;;;;;;;10.02;8.23;;;3.00;99.90;;;;;;4975883;28;20050;-78
2022/04/09 04:22:02;;;;;;;11.32;8.32;;;3.00;99.90;;;;;;4963815;28;20034;-78
2022/04/09 04:24:28;;;;;;;13.13;8.65;;;2.90;99.90;;;;;;4970561;28;20039;-78
2022/04/09 04:26:54;;;;;;;10.77;9.15;;;2.90;99.90;;;;;;4971531;28;20082;-78
2022/04/09 04:29:19;;;;;;;10.65;9.43;;;2.90;99.90;;;;;;4959820;28;20034;-77
2022/04/09 04:31:45;;;;;;;12.80;9.25;;;2.90;99.90;;;;;;4979546;28;20504;-77
2022/04/09 04:34:10;;;;;;;14.88;10.65;;;2.80;99.90;;;;;;4964627;28;20033;-77
2022/04/09 04:36:36;;;;;;;15.73;11.52;;;2.80;99.90;;;;;;4973481;28;20031;-77
2022/04/09 04:39:01;;;;;;;11.38;9.98;;;2.80;99.90;;;;;;4978978;28;20081;-77
2022/04/09 04:41:27;;;;;;;19.98;12.52;;;2.70;99.90;;;;;;4974101;28;20062;-77
2022/04/09 04:43:52;;;;;;;10.57;9.43;;;2.80;99.90;;;;;;4959594;28;20444;-77
2022/04/09 04:46:19;;;;;;;13.60;9.18;;;2.70;99.90;;;;;;4959904;28;20101;-77
2022/04/09 04:48:48;;;;;;;11.95;9.73;;;2.70;99.90;;;;;;4964119;28;20114;-78
2022/04/09 04:51:14;;;;;;;14.38;10.25;;;2.70;99.90;;;;;;4981018;28;20023;-78
2022/04/09 04:53:39;;;;;;;12.98;10.75;;;2.70;99.90;;;;;;4961106;28;20046;-78
2022/04/09 04:56:05;;;;;;;18.10;14.07;;;2.70;99.90;;;;;;4977215;28;20063;-78
2022/04/09 04:58:30;;;;;;;16.63;12.77;;;2.70;99.90;;;;;;4975009;28;20445;-78
2022/04/09 05:00:56;;;;;;;14.73;12.40;;;2.70;99.90;;;;;;4970702;28;20022;-77
2022/04/09 05:03:22;;;;;;;15.75;10.15;;;2.70;99.90;;;;;;4975693;28;20023;-78
2022/04/09 05:05:48;;;;;;;15.27;10.35;;;2.80;99.90;;;;;;4977259;28;20026;-77
2022/04/09 05:08:13;;;;;;;18.30;10.68;;;2.80;99.90;;;;;;4957870;28;20019;-79
2022/04/09 05:10:39;;;;;;;12.30;10.93;;;2.80;99.90;;;;;;4982283;28;20038;-78
2022/04/09 05:13:05;;;;;;;10.98;9.23;;;2.90;99.90;;;;;;4980675;28;20031;-78
2022/04/09 05:15:31;;;;;;;13.23;10.40;;;3.10;99.90;;;;;;4980592;28;20026;-78
2022/04/09 05:17:57;;;;;;;12.07;9.73;;;3.10;99.90;;;;;;4977147;28;20027;-78
2022/04/09 05:20:23;;;;;;;13.07;9.88;;;3.20;99.90;;;;;;4976419;28;20062;-78
2022/04/09 05:22:48;;;;;;;14.48;9.70;;;3.20;99.90;;;;;;4977099;28;20027;-78
2022/04/09 05:25:18;;;;;;;9.93;8.60;;;3.30;99.90;;;;;;4958019;28;20035;-78
2022/04/09 05:27:44;;;;;;;11.18;8.55;;;3.50;99.90;;;;;;4978250;28;20023;-78
2022/04/09 05:30:10;;;;;;;11.55;7.57;;;3.90;99.90;;;;;;4981168;28;20033;-78
2022/04/09 05:32:36;;;;;;;8.23;7.40;;;4.30;99.90;;;;;;4971104;28;20393;-78
2022/04/09 05:35:04;;;;;;;7.95;6.53;;;4.50;99.90;;;;;;4963609;28;20023;-77
2022/04/09 05:37:31;;;;;;;9.73;7.15;;;4.90;99.90;;;;;;4977085;28;20029;-77
2022/04/09 05:39:56;;;;;;;6.68;6.00;;;4.90;99.90;;;;;;4980275;28;20432;-77
2022/04/09 05:42:24;;;;;;;7.50;6.60;;;5.10;99.90;;;;;;4960987;28;20057;-78
2022/04/09 05:44:49;;;;;;;8.32;5.60;;;5.30;99.90;;;;;;4978954;28;20031;-78
2022/04/09 05:47:15;;;;;;;8.27;6.53;;;5.50;99.90;;;;;;4958868;28;20560;-77
2022/04/09 05:49:40;;;;;;;7.28;5.20;;;5.60;99.90;;;;;;4962125;28;20033;-78
2022/04/09 05:52:06;;;;;;;6.75;5.38;;;5.60;99.90;;;;;;4965166;28;20091;-77
2022/04/09 05:54:32;;;;;;;7.75;5.75;;;5.60;99.90;;;;;;4970852;28;20489;-78
2022/04/09 05:56:59;;;;;;;8.57;7.22;;;5.70;99.90;;;;;;4966202;28;20054;-77
2022/04/09 05:59:26;;;;;;;8.77;4.97;;;5.90;99.90;;;;;;4971898;28;20031;-78
2022/04/09 06:01:52;;;;;;;5.15;4.65;;;6.10;99.90;;;;;;4964145;28;20500;-76
2022/04/09 06:04:20;;;;;;;8.50;5.57;;;6.00;99.90;;;;;;4970899;28;20026;-77
2022/04/09 06:06:48;;;;;;;6.93;5.05;;;5.80;99.90;;;;;;4974131;28;20010;-79
2022/04/09 06:09:14;;;;;;;7.07;4.95;;;5.80;99.90;;;;;;4984808;28;20022;-78
2022/04/09 06:11:42;;;;;;;6.00;5.18;;;5.40;99.90;;;;;;4977732;28;20023;-78
2022/04/09 06:14:08;;;;;;;5.72;4.85;;;5.00;99.90;;;;;;4959203;28;20022;-77
2022/04/09 06:16:38;;;;;;;6.93;5.72;;;4.80;99.90;;;;;;4984917;28;20034;-78
2022/04/09 06:19:07;;;;;;;6.88;6.18;;;4.70;99.90;;;;;;4979986;28;20014;-79
2022/04/09 06:21:33;;;;;;;11.10;7.05;;;4.70;99.90;;;;;;4978350;28;20031;-79
2022/04/09 06:24:00;;;;;;;7.90;5.90;;;4.80;99.90;;;;;;4982672;28;20031;-77
2022/04/09 06:26:25;;;;;;;7.90;7.10;;;4.90;99.90;;;;;;4982182;28;20023;-77
2022/04/09 06:28:51;;;;;;;8.60;5.43;;;4.80;99.90;;;;;;4978439;28;20031;-77
2022/04/09 06:31:16;;;;;;;7.43;5.75;;;4.80;99.90;;;;;;4983591;28;20022;-78
2022/04/09 06:33:42;;;;;;;8.90;5.32;;;4.90;99.90;;;;;;4975504;28;20438;-78
2022/04/09 06:36:08;;;;;;;6.13;5.18;;;5.00;99.90;;;;;;4982184;28;20035;-77
2022/04/09 06:38:34;;;;;;;6.10;4.82;;;5.10;99.90;;;;;;4966248;28;20078;-78
2022/04/09 06:41:00;;;;;;;6.25;4.50;;;5.20;99.90;;;;;;4981115;28;20037;-78
2022/04/09 06:43:26;;;;;;;6.82;6.13;;;5.20;99.90;;;;;;4974485;28;20054;-78
2022/04/09 06:45:52;;;;;;;6.40;4.75;;;5.30;99.90;;;;;;4980326;28;20033;-79
2022/04/09 06:48:18;;;;;;;4.53;4.13;;;5.30;99.90;;;;;;4981019;28;20039;-78
2022/04/09 06:50:43;;;;;;;8.35;5.15;;;5.20;99.90;;;;;;4961219;28;20093;-78
2022/04/09 06:53:09;;;;;;;5.95;4.78;;;5.20;99.90;;;;;;4984737;28;20512;-78
2022/04/09 06:55:35;;;;;;;7.72;4.45;;;5.20;99.90;;;;;;4983763;28;20077;-79
2022/04/09 06:58:01;;;;;;;6.47;5.05;;;5.30;99.90;;;;;;4962355;28;20035;-78
2022/04/09 07:00:27;;;;;;;6.35;4.93;;;5.10;99.90;;;;;;4976043;28;20026;-78
2022/04/09 07:02:53;;;;;;;9.25;5.20;;;5.10;99.90;;;;;;4973932;28;20485;-78
2022/04/09 07:05:18;;;;;;;7.28;4.70;;;5.40;99.90;;;;;;4984068;28;20389;-78
2022/04/09 07:07:50;;;;;;;7.00;4.50;;;5.60;99.90;;;;;;4975500;28;20029;-77
2022/04/09 07:10:16;;;;;;;7.38;4.55;;;5.30;99.90;;;;;;4977950;28;20022;-79
2022/04/09 07:12:42;;;;;;;5.55;4.82;;;5.30;99.90;;;;;;4973601;28;20085;-78
2022/04/09 07:15:09;;;;;;;7.40;4.72;;;5.30;99.90;;;;;;4962442;28;20031;-78
2022/04/09 07:17:34;;;;;;;7.72;4.22;;;5.30;99.90;;;;;;4963547;28;20203;-79
2022/04/09 07:20:04;;;;;;;10.50;5.70;;;5.50;99.90;;;;;;4970648;28;20165;-77
2022/04/09 07:22:30;;;;;;;7.65;4.70;;;5.80;99.90;;;;;;4961050;28;20058;-77
2022/04/09 07:24:56;;;;;;;6.32;4.47;;;5.80;99.90;;;;;;4969807;28;20114;-77
2022/04/09 07:27:33;;;;;;;5.85;3.92;;;5.80;99.90;;;;;;4959465;28;20023;-79
2022/04/09 07:29:58;;;;;;;6.70;4.25;;;5.90;99.90;;;;;;4975389;28;20085;-78
2022/04/09 07:32:24;;;;;;;5.40;4.53;;;6.20;99.90;;;;;;4970222;28;20026;-78
2022/04/09 07:34:49;;;;;;;3.85;3.35;;;6.30;99.90;;;;;;4965803;28;20488;-78
2022/04/09 07:37:15;;;;;;;7.68;4.82;;;6.10;99.90;;;;;;4966261;28;20033;-78
2022/04/09 07:39:40;;;;;;;10.35;4.00;;;6.40;99.90;;;;;;4990196;28;20042;-78
2022/04/09 07:42:06;;;;;;;4.38;3.78;;;6.50;99.90;;;;;;5013087;28;20038;-77
2022/04/09 07:44:32;;;;;;;6.30;3.50;;;6.70;99.90;;;;;;4992058;28;20034;-78
2022/04/09 07:46:57;;;;;;;4.07;3.15;;;6.70;99.90;;;;;;5013149;28;20143;-77
2022/04/09 07:49:23;;;;;;;6.63;3.53;;;6.70;99.90;;;;;;5003288;28;20022;-78
2022/04/09 07:51:48;;;;;;;11.73;3.50;;;6.90;99.90;;;;;;4981239;28;20046;-75
2022/04/09 07:54:15;;;;;;;6.63;3.22;;;6.80;99.90;;;;;;4979741;28;20440;-75
2022/04/09 07:56:40;;;;;;;4.55;3.35;;;6.70;99.90;;;;;;4976374;28;20030;-77
2022/04/09 07:59:06;;;;;;;5.35;3.38;;;6.70;99.90;;;;;;4982391;28;20041;-77
2022/04/09 08:01:31;;;;;;;4.10;3.22;;;6.70;99.90;;;;;;4963235;28;20027;-77
2022/04/09 08:03:57;;;;;;;5.13;3.50;;;6.50;99.90;;;;;;4972641;28;20238;-74
2022/04/09 08:06:22;;;;;;;8.00;3.15;;;6.40;99.90;;;;;;4975696;28;20037;-74
2022/04/09 08:08:48;;;;;;;6.60;3.15;;;6.40;99.90;;;;;;4973670;28;20027;-74
2022/04/09 08:11:13;;;;;;;6.18;3.47;;;6.40;99.90;;;;;;4973586;28;20062;-74
2022/04/09 08:13:39;;;;;;;7.00;3.45;;;6.30;99.90;;;;;;4971896;28;20525;-74
2022/04/09 08:16:05;;;;;;;4.28;2.53;;;5.90;99.90;;;;;;4972590;28;20027;-75
2022/04/09 08:18:31;;;;;;;6.90;3.25;;;5.80;99.90;;;;;;4975050;28;20027;-76
2022/04/09 08:20:56;;;;;;;9.32;4.05;;;5.80;99.90;;;;;;4975560;28;20460;-75
2022/04/09 08:23:22;;;;;;;5.53;2.97;;;5.80;99.90;;;;;;4974025;28;20081;-75
2022/04/09 08:25:48;;;;;;;5.20;2.53;;;5.80;99.90;;;;;;4985188;28;20026;-75
2022/04/09 08:28:14;;;;;;;10.00;3.35;;;5.80;99.90;;;;;;4974706;28;20027;-76
2022/04/09 08:30:41;;;;;;;8.80;4.22;;;6.00;99.90;;;;;;4978172;28;20101;-76
2022/04/09 08:33:07;;;;;;;4.35;2.50;;;6.00;99.90;;;;;;4973379;28;20058;-75
2022/04/09 08:35:32;;;;;;;7.13;3.15;;;6.00;99.90;;;;;;4976525;28;20054;-76
2022/04/09 08:37:58;;;;;;;6.60;3.30;;;5.90;99.90;;;;;;4976686;28;20552;-76
2022/04/09 08:40:25;;;;;;;7.07;3.50;;;5.90;99.90;;;;;;4972619;28;20027;-77
2022/04/09 08:42:50;;;;;;;8.65;3.97;;;5.80;99.90;;;;;;4983697;28;20171;-76
2022/04/09 08:45:17;;;;;;;5.80;3.17;;;5.80;99.90;;;;;;4974621;28;20026;-75
2022/04/09 08:47:43;;;;;;;9.57;3.85;;;5.60;99.90;;;;;;4973852;28;20450;-76
2022/04/09 08:50:14;;;;;;;5.28;4.10;;;5.70;99.90;;;;;;4964617;28;20082;-75
2022/04/09 08:52:41;;;;;;;5.70;3.45;;;5.50;99.90;;;;;;4965007;28;20508;-75
2022/04/09 08:55:12;;;;;;;4.40;2.95;;;5.80;99.90;;;;;;4957363;28;20038;-77
2022/04/09 08:57:39;;;;;;;11.63;3.50;;;5.80;99.90;;;;;;4956443;28;20033;-77
2022/04/09 09:00:07;;;;;;;8.00;3.95;;;6.10;99.90;;;;;;4970234;28;20038;-75
2022/04/09 09:02:36;;;;;;;7.85;3.63;;;6.10;99.90;;;;;;4963319;28;20081;-75
2022/04/09 09:05:03;;;;;;;6.28;3.05;;;6.50;99.90;;;;;;4974185;28;20038;-74
2022/04/09 09:07:28;;;;;;;8.10;4.15;;;6.50;99.90;;;;;;4977094;28;20050;-76
2022/04/09 09:10:13;;;;;;;5.40;3.33;;;6.40;99.90;;;;;;4973419;28;20027;-75
2022/04/09 09:12:39;;;;;;;6.38;3.45;;;6.60;99.90;;;;;;4972376;28;20062;-73
2022/04/09 09:15:05;;;;;;;4.55;2.70;;;6.80;99.90;;;;;;4968164;28;20105;-74
2022/04/09 09:17:31;;;;;;;10.07;3.42;;;6.90;99.90;;;;;;4975174;28;20031;-76
2022/04/09 09:19:57;;;;;;;7.32;3.00;;;7.00;99.90;;;;;;4971388;28;20422;-75
2022/04/09 09:22:39;;;;;;;8.88;3.38;;;7.10;99.90;;;;;;4977189;28;20031;-74
2022/04/09 09:25:07;;;;;;;6.45;2.67;;;7.30;99.90;;;;;;4976694;28;20381;-76
2022/04/09 09:27:33;;;;;;;7.43;3.22;;;7.10;99.90;;;;;;4974111;28;20384;-77
2022/04/09 09:29:58;;;;;;;8.60;3.20;;;7.00;99.90;;;;;;4973764;28;20046;-76
2022/04/09 09:32:26;;;;;;;5.55;3.08;;;6.80;99.90;;;;;;4971949;28;20113;-76
2022/04/09 09:34:56;;;;;;;8.00;3.40;;;6.70;99.90;;;;;;4960611;28;20035;-77
2022/04/09 09:37:26;;;;;;;4.25;2.33;;;6.80;99.90;;;;;;4955242;28;20031;-75
2022/04/09 09:39:52;;;;;;;2.72;2.38;;;7.10;99.90;;;;;;4981489;28;20035;-73
2022/04/09 09:42:22;;;;;;;7.43;2.92;;;7.30;99.90;;;;;;4963943;28;20038;-73
2022/04/09 09:44:48;;;;;;;7.07;2.45;;;7.40;99.90;;;;;;4953555;28;20043;-74
2022/04/09 09:47:17;;;;;;;6.10;2.60;;;7.30;99.90;;;;;;4977479;28;20401;-71
2022/04/09 09:49:53;;;;;;;5.28;2.25;;;7.70;99.90;;;;;;4970376;28;20029;-75
2022/04/09 09:52:34;;;;;;;6.68;3.30;;;7.60;99.90;;;;;;4976731;28;20018;-74
2022/04/09 09:55:10;;;;;;;4.43;2.42;;;7.60;99.90;;;;;;4976812;28;20128;-74
2022/04/09 09:57:38;;;;;;;4.85;1.92;;;7.60;99.90;;;;;;4977955;28;20030;-75
2022/04/09 10:00:11;;;;;;;4.00;2.45;;;7.40;99.90;;;;;;4980902;28;20030;-72
2022/04/09 10:02:39;;;;;;;8.55;2.85;;;7.00;99.90;;;;;;4962238;28;20022;-77
2022/04/09 10:05:05;;;;;;;5.82;2.35;;;7.00;99.90;;;;;;4975226;28;20068;-77
2022/04/09 10:07:31;;;;;;;7.82;3.22;;;7.40;99.90;;;;;;4978729;28;20011;-78
2022/04/09 10:10:01;;;;;;;7.85;3.05;;;7.60;99.90;;;;;;4975484;28;20088;-78
2022/04/09 10:12:26;;;;;;;3.90;1.88;;;7.90;99.90;;;;;;4974511;28;20030;-77
2022/04/09 10:14:58;;;;;;;6.10;2.53;;;7.80;99.90;;;;;;4978934;28;20424;-77
2022/04/09 10:17:26;;;;;;;5.20;3.03;;;8.10;99.90;;;;;;4976839;28;20050;-76
2022/04/09 10:20:01;;;;;;;6.28;2.38;;;8.20;99.90;;;;;;4976641;28;20035;-77
2022/04/09 10:22:37;;;;;;;7.25;2.30;;;8.10;99.90;;;;;;4969023;28;20113;-77
2022/04/09 10:25:05;;;;;;;9.10;2.55;;;8.00;99.90;;;;;;4959110;28;20115;-78
2022/04/09 10:27:38;;;;;;;6.72;2.60;;;8.10;99.90;;;;;;4976994;28;20489;-78
2022/04/09 10:30:28;;;;;;;6.60;1.85;;;8.70;99.90;;;;;;4979150;28;20485;-77
2022/04/09 10:32:59;;;;;;;5.75;2.00;;;8.90;99.90;;;;;;4960579;28;20085;-79
2022/04/09 10:35:25;;;;;;;3.90;2.10;;;9.10;99.90;;;;;;4976660;28;20031;-77
2022/04/09 10:38:12;;;;;;;5.68;2.00;;;8.80;99.90;;;;;;4978743;28;20027;-78
2022/04/09 10:40:50;;;;;;;4.93;1.83;;;8.40;99.90;;;;;;4982996;28;20503;-80
2022/04/09 10:43:22;;;;;;;8.00;2.67;;;8.40;99.90;;;;;;4978746;28;20031;-79
2022/04/09 10:46:11;;;;;;;6.18;2.35;;;8.20;99.90;;;;;;4974219;28;20457;-77
2022/04/09 10:48:44;;;;;;;6.28;2.38;;;8.00;99.90;;;;;;4972404;28;20054;-77
2022/04/09 10:51:11;;;;;;;6.93;2.40;;;7.90;99.90;;;;;;4976490;28;20019;-79
2022/04/09 10:53:44;;;;;;;7.03;2.63;;;8.00;99.90;;;;;;4967816;28;20030;-78
2022/04/09 10:56:28;;;;;;;2.70;1.80;;;7.90;99.90;;;;;;4958704;28;20038;-76
2022/04/09 10:59:06;;;;;;;8.68;2.70;;;7.60;99.90;;;;;;4987365;28;20027;-76
2022/04/09 11:01:47;;;;;;;8.95;1.80;;;7.50;99.90;;;;;;4975420;28;20030;-77
2022/04/09 11:04:36;;;;;;;3.00;1.67;;;7.90;99.90;;;;;;4972292;28;20027;-76
2022/04/09 11:07:17;;;;;;;6.38;2.80;;;8.10;99.90;;;;;;4975285;28;20362;-77
2022/04/09 11:09:44;;;;;;;3.63;2.10;;;8.10;99.90;;;;;;4958325;28;20424;-81
2022/04/09 11:12:10;;;;;;;7.43;2.65;;;8.30;99.90;;;;;;4963430;28;20042;-76
2022/04/09 11:14:49;;;;;;;7.05;2.47;;;8.20;99.90;;;;;;4981569;28;20026;-77
2022/04/09 11:17:16;;;;;;;4.80;2.22;;;8.60;99.90;;;;;;4973798;28;20039;-77
2022/04/09 11:19:43;;;;;;;6.97;2.15;;;8.80;99.90;;;;;;4957221;28;20027;-74
2022/04/09 11:22:09;;;;;;;3.25;1.88;;;8.40;99.90;;;;;;4967789;28;20073;-77
2022/04/09 11:24:41;;;;;;;11.07;2.00;;;8.10;99.90;;;;;;4959792;28;20041;-77
2022/04/09 11:27:07;;;;;;;6.57;2.85;;;8.40;99.90;;;;;;4979985;28;20030;-78
2022/04/09 11:29:34;;;;;;;5.50;2.53;;;8.40;99.90;;;;;;4961523;28;20023;-78
2022/04/09 11:32:00;;;;;;;4.28;1.80;;;8.70;99.90;;;;;;4961351;28;20027;-77
2022/04/09 11:34:26;;;;;;;4.60;1.90;;;9.10;99.90;;;;;;4979485;28;20059;-78
2022/04/09 11:37:09;;;;;;;5.68;2.50;;;9.10;99.90;;;;;;4982472;28;20122;-78
2022/04/09 11:39:42;;;;;;;5.38;2.20;;;8.90;99.90;;;;;;4980931;28;20079;-79
2022/04/09 11:42:08;;;;;;;5.93;2.40;;;8.60;99.90;;;;;;4981110;28;20054;-78
2022/04/09 11:44:35;;;;;;;4.07;2.20;;;8.80;99.90;;;;;;4981079;28;20030;-80
2022/04/09 11:47:18;;;;;;;3.95;1.92;;;8.80;99.90;;;;;;4964309;28;20053;-78
2022/04/09 11:49:49;;;;;;;3.20;1.90;;;8.40;99.90;;;;;;4976776;28;20023;-78
2022/04/09 11:52:28;;;;;;;2.00;1.60;;;8.00;99.90;;;;;;4962181;28;20117;-78
2022/04/09 11:54:55;;;;;;;3.08;2.17;;;7.90;99.90;;;;;;4980555;28;20026;-78
2022/04/09 11:57:22;;;;;;;6.90;2.70;;;8.20;99.90;;;;;;4962348;28;20030;-78
2022/04/09 11:59:54;;;;;;;3.88;1.88;;;8.30;99.90;;;;;;4979542;28;20026;-78
2022/04/09 12:02:25;;;;;;;5.88;2.28;;;8.60;99.90;;;;;;4979038;28;20512;-79
2022/04/09 12:04:52;;;;;;;4.13;1.75;;;9.10;99.90;;;;;;4964476;28;20046;-79
2022/04/09 12:07:18;;;;;;;5.68;1.95;;;9.30;99.90;;;;;;4963428;28;20023;-79
2022/04/09 12:09:44;;;;;;;5.68;1.98;;;9.00;99.90;;;;;;4980910;28;20089;-79
2022/04/09 12:12:10;;;;;;;6.80;1.60;;;9.10;99.90;;;;;;4963220;28;20039;-79
2022/04/09 12:14:36;;;;;;;5.50;1.75;;;8.70;99.90;;;;;;4979471;28;20050;-79
2022/04/09 12:17:13;;;;;;;3.20;1.95;;;8.30;99.90;;;;;;4963134;28;20066;-80
2022/04/09 12:19:43;;;;;;;6.82;2.50;;;8.20;99.90;;;;;;4980047;28;20070;-79
2022/04/09 12:22:22;;;;;;;6.70;2.58;;;8.10;99.90;;;;;;4963304;28;20033;-79
2022/04/09 12:24:53;;;;;;;4.03;1.80;;;8.30;99.90;;;;;;4978472;28;20023;-79
2022/04/09 12:27:42;;;;;;;2.30;1.48;;;8.60;99.90;;;;;;4975669;28;20043;-80
2022/04/09 12:30:08;;;;;;;7.10;2.78;;;8.80;99.90;;;;;;4983272;28;20027;-78
2022/04/09 12:32:34;;;;;;;7.20;1.67;;;9.20;99.90;;;;;;4980646;28;20453;-79
2022/04/09 12:35:05;;;;;;;3.38;1.33;;;9.60;99.90;;;;;;4961860;28;20034;-79
2022/04/09 12:37:41;;;;;;;;;;;9.40;99.90;;;;;;4980470;28;20031;-78
2022/04/09 12:40:15;;;;;;;3.47;1.30;;;9.30;99.60;;;;;;4965825;28;19952;-78
2022/04/09 12:42:40;;;;;;;2.75;1.30;;;9.30;99.90;;;;;;4978874;28;20607;-78
2022/04/09 12:45:11;;;;;;;6.85;2.00;;;9.60;99.70;;;;;;4961341;28;20065;-79
2022/04/09 12:47:37;;;;;;;3.20;1.20;;;9.70;98.00;;;;;;4978785;28;20025;-77
2022/04/09 12:50:04;;;;;;;3.50;1.27;;;10.00;99.10;;;;;;4978624;28;20034;-77
2022/04/09 12:52:30;;;;;;;7.18;2.53;;;9.50;98.00;;;;;;4983232;28;20027;-78
2022/04/09 12:54:58;;;;;;;15.52;2.03;;;9.30;99.10;;;;;;4983105;28;20037;-79
2022/04/09 12:57:25;;;;;;;5.07;2.60;;;8.80;99.30;;;;;;4967365;28;20046;-80